createdAt,value
2022-09-11T00:02:18.795Z,14.73
2022-09-11T00:07:20.151Z,14.68
2022-09-11T00:12:22.139Z,14.60
2022-09-11T00:17:23.793Z,14.63
2022-09-11T00:22:25.119Z,14.68
2022-09-11T00:27:26.512Z,14.67
2022-09-11T00:32:28.168Z,14.73
2022-09-11T00:37:29.481Z,14.69
2022-09-11T00:42:30.919Z,14.75
2022-09-11T00:47:32.350Z,14.78
2022-09-11T00:52:37.620Z,14.86
2022-09-11T00:57:42.268Z,14.94
2022-09-11T01:02:46.530Z,15.00
2022-09-11T01:07:49.187Z,15.04
2022-09-11T01:13:01.100Z,15.07
2022-09-11T01:18:07.854Z,15.07
2022-09-11T01:23:24.598Z,15.10
2022-09-11T01:28:33.685Z,15.09
2022-09-11T01:33:42.053Z,15.11
2022-09-11T01:38:46.807Z,15.14
2022-09-11T01:43:56.230Z,15.15
2022-09-11T01:49:02.556Z,15.14
2022-09-11T01:54:06.929Z,15.17
2022-09-11T01:59:12.200Z,15.23
2022-09-11T02:04:17.252Z,15.22
2022-09-11T02:09:21.687Z,15.24
2022-09-11T02:14:32.712Z,15.22
2022-09-11T02:19:34.120Z,15.28
2022-09-11T02:24:35.557Z,15.28
2022-09-11T02:29:37.110Z,15.30
2022-09-11T02:34:40.120Z,15.35
2022-09-11T02:39:53.714Z,15.40
2022-09-11T02:45:03.949Z,15.39
2022-09-11T02:50:08.400Z,15.35
2022-09-11T02:55:09.698Z,15.35
2022-09-11T03:00:11.915Z,15.38
2022-09-11T03:05:13.524Z,15.39
2022-09-11T03:10:15.060Z,15.47
2022-09-11T03:15:17.455Z,15.41
2022-09-11T03:20:20.145Z,15.44
2022-09-11T03:25:23.588Z,15.48
2022-09-11T03:30:24.917Z,15.37
2022-09-11T03:35:27.129Z,15.24
2022-09-11T03:40:28.471Z,15.15
2022-09-11T03:45:30.022Z,15.03
2022-09-11T03:50:31.341Z,15.07
2022-09-11T03:55:33.009Z,15.00
2022-09-11T04:00:34.372Z,15.05
2022-09-11T04:05:36.391Z,15.07
2022-09-11T04:10:38.305Z,15.08
2022-09-11T04:15:39.619Z,15.08
2022-09-11T04:20:40.921Z,15.06
2022-09-11T04:25:42.233Z,15.06
2022-09-11T04:30:43.541Z,15.08
2022-09-11T04:35:44.865Z,15.03
2022-09-11T04:40:46.259Z,14.99
2022-09-11T04:45:47.619Z,15.03
2022-09-11T04:50:48.957Z,14.97
2022-09-11T04:55:50.532Z,15.03
2022-09-11T05:00:51.857Z,14.96
2022-09-11T05:05:53.189Z,15.00
2022-09-11T05:10:55.116Z,15.02
2022-09-11T05:16:00.732Z,14.99
2022-09-11T05:21:03.343Z,15.06
2022-09-11T05:26:05.321Z,15.06
2022-09-11T05:31:13.719Z,15.11
2022-09-11T05:36:16.261Z,15.15
2022-09-11T05:41:17.593Z,15.27
2022-09-11T05:46:19.629Z,15.18
2022-09-11T05:51:21.765Z,15.14
2022-09-11T05:56:24.320Z,15.31
2022-09-11T06:01:26.668Z,15.32
2022-09-11T06:06:29.309Z,15.29
2022-09-11T06:11:30.995Z,15.32
2022-09-11T06:16:32.530Z,15.45
2022-09-11T06:21:34.104Z,15.35
2022-09-11T06:26:35.489Z,15.27
2022-09-11T06:31:36.807Z,15.33
2022-09-11T06:36:38.822Z,15.45
2022-09-11T06:41:40.133Z,15.59
2022-09-11T06:46:42.208Z,15.68
2022-09-11T06:51:43.671Z,15.85
2022-09-11T06:56:45.265Z,16.04
2022-09-11T07:01:46.696Z,16.25
2022-09-11T07:06:48.095Z,16.46
2022-09-11T07:11:49.481Z,16.59
2022-09-11T07:16:52.880Z,16.44
2022-09-11T07:21:54.292Z,16.68
2022-09-11T07:26:55.665Z,17.12
2022-09-11T07:31:58.565Z,17.31
2022-09-11T07:36:59.875Z,17.45
2022-09-11T07:42:01.269Z,17.32
2022-09-11T07:47:02.766Z,17.63
2022-09-11T07:52:04.309Z,18.22
2022-09-11T07:57:05.674Z,18.09
2022-09-11T08:02:11.681Z,18.08
2022-09-11T08:07:13.055Z,18.05
2022-09-11T08:12:14.489Z,18.30
2022-09-11T08:17:16.170Z,18.50
2022-09-11T08:22:17.859Z,18.63
2022-09-11T08:27:19.179Z,19.06
2022-09-11T08:32:22.253Z,20.45
2022-09-11T08:37:23.578Z,20.54
2022-09-11T08:42:27.246Z,22.93
2022-09-11T08:47:31.311Z,24.95
2022-09-11T08:52:33.203Z,20.83
2022-09-11T08:57:47.303Z,19.72
2022-09-11T09:03:08.617Z,19.63
2022-09-11T09:08:09.921Z,20.46
2022-09-11T09:13:24.245Z,21.37
2022-09-11T09:18:33.476Z,22.41
2022-09-11T09:23:49.511Z,21.83
2022-09-11T09:28:54.912Z,21.88
2022-09-11T09:34:09.546Z,20.94
2022-09-11T09:39:15.702Z,21.96
2022-09-11T09:44:27.859Z,22.22
2022-09-11T09:49:33.133Z,22.60
2022-09-11T09:54:36.391Z,22.66
2022-09-11T09:59:47.456Z,22.25
2022-09-11T10:05:02.309Z,21.83
2022-09-11T10:10:04.708Z,24.63
2022-09-11T10:15:06.540Z,24.83
2022-09-11T10:20:13.665Z,24.07
2022-09-11T10:25:16.020Z,23.99
2022-09-11T10:30:43.735Z,23.49
2022-09-11T10:35:55.065Z,24.67
2022-09-11T10:40:59.262Z,25.56
2022-09-11T10:46:28.706Z,27.40
2022-09-11T10:51:31.495Z,27.73
2022-09-11T10:56:35.866Z,27.91
2022-09-11T11:01:37.393Z,26.69
2022-09-11T11:06:53.427Z,26.67
2022-09-11T11:12:02.068Z,24.97
2022-09-11T11:17:18.485Z,26.25
2022-09-11T11:22:38.722Z,26.28
2022-09-11T11:28:00.704Z,25.91
2022-09-11T11:33:10.416Z,27.84
2022-09-11T11:38:16.353Z,28.32
2022-09-11T11:43:21.209Z,26.82
2022-09-11T11:48:34.425Z,28.09
2022-09-11T11:53:39.003Z,28.18
2022-09-11T11:58:47.627Z,28.95
2022-09-11T12:03:55.433Z,28.67
2022-09-11T12:08:57.336Z,28.79
2022-09-11T12:13:59.264Z,28.61
2022-09-11T12:19:04.241Z,28.23
2022-09-11T12:24:05.540Z,27.61
2022-09-11T12:29:13.966Z,27.73
2022-09-11T12:34:17.386Z,27.74
2022-09-11T12:39:37.404Z,27.49
2022-09-11T12:44:47.487Z,26.33
2022-09-11T12:49:58.894Z,25.89
2022-09-11T12:55:02.897Z,25.36
2022-09-11T13:00:11.103Z,25.39
2022-09-11T13:05:34.651Z,25.40
2022-09-11T13:10:37.599Z,25.89
2022-09-11T13:15:41.160Z,25.88
2022-09-11T13:20:42.575Z,25.02
2022-09-11T13:25:45.045Z,25.08
2022-09-11T13:31:03.313Z,25.34
2022-09-11T13:36:06.857Z,24.56
2022-09-11T13:41:16.740Z,25.16
2022-09-11T13:46:19.466Z,24.86
2022-09-11T13:51:22.592Z,23.49
2022-09-11T13:56:47.197Z,24.25
2022-09-11T14:01:53.892Z,24.12
2022-09-11T14:06:55.989Z,23.53
2022-09-11T14:12:02.245Z,23.82
2022-09-11T14:17:03.606Z,24.20
2022-09-11T14:22:22.578Z,24.17
2022-09-11T14:27:32.913Z,24.00
2022-09-11T14:32:36.812Z,24.10
2022-09-11T14:37:43.950Z,23.67
2022-09-11T14:42:45.614Z,22.66
2022-09-11T14:47:46.925Z,22.51
2022-09-11T14:52:48.256Z,22.92
2022-09-11T14:57:50.053Z,22.86
2022-09-11T15:02:52.055Z,22.95
2022-09-11T15:07:53.360Z,22.80
2022-09-11T15:12:55.508Z,22.72
2022-09-11T15:17:57.130Z,22.22
2022-09-11T15:22:58.539Z,21.98
2022-09-11T15:27:59.859Z,22.04
2022-09-11T15:33:01.215Z,21.83
2022-09-11T15:38:05.512Z,21.85
2022-09-11T15:43:06.934Z,21.63
2022-09-11T15:48:08.288Z,21.48
2022-09-11T15:53:10.112Z,21.42
2022-09-11T15:58:11.727Z,21.40
2022-09-11T16:03:13.046Z,21.11
2022-09-11T16:08:15.387Z,20.83
2022-09-11T16:13:17.732Z,20.86
2022-09-11T16:18:19.506Z,20.82
2022-09-11T16:23:21.872Z,20.74
2022-09-11T16:28:23.331Z,20.66
2022-09-11T16:33:24.663Z,20.46
2022-09-11T16:38:26.113Z,20.30
2022-09-11T16:43:27.528Z,20.15
2022-09-11T16:48:29.273Z,19.99
2022-09-11T16:53:31.850Z,19.88
2022-09-11T16:58:36.500Z,19.74
2022-09-11T17:03:41.375Z,19.48
2022-09-11T17:08:44.625Z,19.37
2022-09-11T17:13:46.634Z,19.16
2022-09-11T17:18:49.050Z,18.98
2022-09-11T17:23:51.535Z,18.82
2022-09-11T17:28:55.009Z,18.64
2022-09-11T17:33:56.597Z,18.42
2022-09-11T17:38:59.412Z,18.27
2022-09-11T17:44:00.799Z,18.07
2022-09-11T17:49:02.282Z,18.03
2022-09-11T17:54:03.669Z,17.90
2022-09-11T17:59:04.990Z,17.71
2022-09-11T18:04:06.966Z,17.47
2022-09-11T18:09:13.843Z,17.25
2022-09-11T18:14:16.378Z,17.04
2022-09-11T18:19:20.296Z,16.78
2022-09-11T18:24:21.971Z,16.64
2022-09-11T18:29:23.275Z,16.36
2022-09-11T18:34:28.076Z,16.14
2022-09-11T18:39:29.391Z,15.98
2022-09-11T18:44:30.714Z,15.82
2022-09-11T18:49:32.083Z,15.57
2022-09-11T18:54:33.656Z,15.46
2022-09-11T18:59:34.975Z,15.44
2022-09-11T19:04:36.275Z,15.28
2022-09-11T19:09:37.862Z,15.19
2022-09-11T19:14:39.168Z,15.06
2022-09-11T19:19:40.499Z,14.99
2022-09-11T19:24:42.529Z,14.88
2022-09-11T19:29:43.972Z,14.72
2022-09-11T19:34:47.514Z,14.60
2022-09-11T19:39:50.775Z,14.54
2022-09-11T19:44:55.723Z,14.41
2022-09-11T19:50:00.210Z,14.32
2022-09-11T19:55:01.782Z,14.32
2022-09-11T20:00:03.951Z,14.14
2022-09-11T20:05:05.428Z,14.04
2022-09-11T20:10:08.147Z,13.95
2022-09-11T20:15:09.695Z,13.92
2022-09-11T20:20:11.880Z,13.81
2022-09-11T20:25:13.196Z,13.68
2022-09-11T20:30:14.549Z,13.63
2022-09-11T20:35:15.959Z,13.62
2022-09-11T20:40:17.335Z,13.52
2022-09-11T20:45:18.713Z,13.40
2022-09-11T20:50:20.020Z,13.32
2022-09-11T20:55:21.345Z,13.29
2022-09-11T21:00:22.757Z,13.11
2022-09-11T21:05:24.062Z,13.04
2022-09-11T21:10:25.461Z,13.03
2022-09-11T21:15:26.833Z,13.03
2022-09-11T21:20:28.142Z,12.93
2022-09-11T21:25:29.554Z,12.87
2022-09-11T21:30:30.953Z,12.82
2022-09-11T21:35:32.261Z,12.75
2022-09-11T21:40:33.640Z,12.64
2022-09-11T21:45:34.960Z,12.64
2022-09-11T21:50:36.908Z,12.50
2022-09-11T21:55:42.486Z,12.45
2022-09-11T22:00:43.917Z,12.36
2022-09-11T22:05:47.649Z,12.37
2022-09-11T22:10:50.409Z,12.26
2022-09-11T22:15:52.967Z,12.29
2022-09-11T22:20:58.235Z,12.13
2022-09-11T22:26:01.520Z,12.09
2022-09-11T22:31:07.609Z,11.98
2022-09-11T22:36:13.444Z,11.96
2022-09-11T22:41:15.223Z,11.86
2022-09-11T22:46:17.392Z,11.82
2022-09-11T22:51:18.749Z,11.80
2022-09-11T22:56:20.078Z,11.72
2022-09-11T23:01:22.727Z,11.67
2022-09-11T23:06:43.275Z,11.64
2022-09-11T23:11:45.457Z,11.66
2022-09-11T23:16:46.785Z,11.62
2022-09-11T23:21:48.123Z,11.51
2022-09-11T23:26:49.704Z,11.48
2022-09-11T23:31:51.142Z,11.40
2022-09-11T23:36:52.742Z,11.40
2022-09-11T23:41:54.212Z,11.31
2022-09-11T23:46:55.528Z,11.18
2022-09-11T23:51:56.896Z,11.20
2022-09-11T23:56:58.389Z,11.20
